createdAt,value
2023-04-22T00:02:41.951Z,6.97
2023-04-22T00:07:57.639Z,6.65
2023-04-22T00:13:13.496Z,6.15
2023-04-22T00:18:29.569Z,7.25
2023-04-22T00:23:45.591Z,6.90
2023-04-22T00:29:01.590Z,6.47
2023-04-22T00:34:20.639Z,6.15
2023-04-22T00:39:39.793Z,5.70
2023-04-22T00:44:57.164Z,6.30
2023-04-22T00:50:13.884Z,6.35
2023-04-22T00:55:30.043Z,6.38
2023-04-22T01:00:46.163Z,6.63
2023-04-22T01:06:01.792Z,6.82
2023-04-22T01:11:17.456Z,6.40
2023-04-22T01:16:35.863Z,6.05
2023-04-22T01:21:53.354Z,6.20
2023-04-22T01:27:09.998Z,6.47
2023-04-22T01:32:26.364Z,5.68
2023-04-22T01:37:42.261Z,5.80
2023-04-22T01:42:59.720Z,5.22
2023-04-22T01:48:15.513Z,6.03
2023-04-22T01:53:31.436Z,6.10
2023-04-22T01:58:47.457Z,5.70
2023-04-22T02:04:03.221Z,5.57
2023-04-22T02:09:19.078Z,5.07
2023-04-22T02:14:34.589Z,7.00
2023-04-22T02:19:49.970Z,5.93
2023-04-22T02:25:06.950Z,6.30
2023-04-22T02:30:22.916Z,5.28
2023-04-22T02:35:38.898Z,5.80
2023-04-22T02:40:54.762Z,6.47
2023-04-22T02:46:13.608Z,5.93
2023-04-22T02:51:29.363Z,5.85
2023-04-22T02:56:45.161Z,6.43
2023-04-22T03:02:00.515Z,6.38
2023-04-22T03:07:16.385Z,6.55
2023-04-22T03:12:32.323Z,6.00
2023-04-22T03:17:48.079Z,6.15
2023-04-22T03:23:04.761Z,6.18
2023-04-22T03:28:20.673Z,6.30
2023-04-22T03:33:36.283Z,6.38
2023-04-22T03:38:52.102Z,6.20
2023-04-22T03:44:08.141Z,5.63
2023-04-22T03:49:24.316Z,6.25
2023-04-22T03:54:40.572Z,5.35
2023-04-22T03:59:56.350Z,5.15
2023-04-22T04:05:12.538Z,6.70
2023-04-22T04:10:28.169Z,6.30
2023-04-22T04:15:44.940Z,5.53
2023-04-22T04:21:00.702Z,6.13
2023-04-22T04:26:16.895Z,7.00
2023-04-22T04:31:32.678Z,6.82
2023-04-22T04:36:48.625Z,8.15
2023-04-22T04:42:05.420Z,7.03
2023-04-22T04:47:22.872Z,6.43
2023-04-22T04:52:38.553Z,6.90
2023-04-22T04:57:54.562Z,6.22
2023-04-22T05:03:11.091Z,5.30
2023-04-22T05:08:26.869Z,5.63
2023-04-22T05:13:42.783Z,6.72
2023-04-22T05:18:58.934Z,6.35
2023-04-22T05:24:14.884Z,6.95
2023-04-22T05:29:31.813Z,6.15
2023-04-22T05:34:47.742Z,6.85
2023-04-22T05:40:03.873Z,7.47
2023-04-22T05:45:19.757Z,7.13
2023-04-22T05:50:35.911Z,6.15
2023-04-22T05:55:51.712Z,5.90
2023-04-22T06:01:07.844Z,4.43
2023-04-22T06:06:23.544Z,3.90
2023-04-22T06:11:39.420Z,3.22
2023-04-22T06:16:55.378Z,3.17
2023-04-22T06:22:11.254Z,2.90
2023-04-22T06:27:27.184Z,2.65
2023-04-22T06:32:42.496Z,2.58
2023-04-22T06:37:58.283Z,3.50
2023-04-22T06:43:13.992Z,3.05
2023-04-22T06:48:29.420Z,3.38
2023-04-22T06:53:44.803Z,3.58
2023-04-22T06:59:00.004Z,3.20
2023-04-22T07:04:16.169Z,3.90
2023-04-22T07:09:31.998Z,3.47
2023-04-22T07:14:50.450Z,5.43
2023-04-22T07:20:07.122Z,3.58
2023-04-22T07:25:22.682Z,2.85
2023-04-22T07:30:38.628Z,2.38
2023-04-22T07:35:54.551Z,2.75
2023-04-22T07:41:09.916Z,2.30
2023-04-22T07:46:25.944Z,2.67
2023-04-22T07:51:41.809Z,2.40
2023-04-22T07:56:58.472Z,2.47
2023-04-22T08:02:14.002Z,2.08
2023-04-22T08:07:33.549Z,2.45
2023-04-22T08:12:49.416Z,2.47
2023-04-22T08:18:04.951Z,2.92
2023-04-22T08:23:21.630Z,2.65
2023-04-22T08:28:37.814Z,2.58
2023-04-22T08:33:53.714Z,2.80
2023-04-22T08:39:10.334Z,3.17
2023-04-22T08:44:27.075Z,3.30
2023-04-22T08:49:44.051Z,2.80
2023-04-22T08:55:00.217Z,3.17
2023-04-22T09:00:16.828Z,2.88
2023-04-22T09:05:34.416Z,2.70
2023-04-22T09:10:50.706Z,3.10
2023-04-22T09:16:06.407Z,3.58
2023-04-22T09:21:27.996Z,3.22
2023-04-22T09:26:43.735Z,2.95
2023-04-22T09:32:00.080Z,2.92
2023-04-22T09:37:15.593Z,2.50
2023-04-22T09:42:31.548Z,2.28
2023-04-22T09:47:47.261Z,2.60
2023-04-22T09:53:06.145Z,2.38
2023-04-22T09:58:27.856Z,2.65
2023-04-22T10:03:44.526Z,2.80
2023-04-22T10:09:00.624Z,2.40
2023-04-22T10:14:16.596Z,2.42
2023-04-22T10:19:35.411Z,2.70
2023-04-22T10:24:55.451Z,2.63
2023-04-22T10:30:11.774Z,2.55
2023-04-22T10:35:29.516Z,2.58
2023-04-22T10:41:06.243Z,2.40
2023-04-22T10:46:42.229Z,2.78
2023-04-22T10:51:59.979Z,2.75
2023-04-22T10:57:22.803Z,2.42
2023-04-22T11:02:42.127Z,2.92
2023-04-22T11:08:04.664Z,2.63
2023-04-22T11:13:21.919Z,2.60
2023-04-22T11:18:38.729Z,2.70
2023-04-22T11:23:54.408Z,2.70
2023-04-22T11:29:10.264Z,2.42
2023-04-22T11:34:25.784Z,2.40
2023-04-22T11:39:54.578Z,2.17
2023-04-22T11:45:17.514Z,2.25
2023-04-22T11:50:38.808Z,1.88
2023-04-22T11:55:54.733Z,2.42
2023-04-22T12:01:14.502Z,2.55
2023-04-22T12:06:32.587Z,2.33
2023-04-22T12:11:48.451Z,2.30
2023-04-22T12:17:05.963Z,1.95
2023-04-22T12:22:26.530Z,2.72
2023-04-22T12:27:43.697Z,2.05
2023-04-22T12:32:59.584Z,2.42
2023-04-22T12:38:16.231Z,2.08
2023-04-22T12:43:33.868Z,2.17
2023-04-22T12:48:49.213Z,1.70
2023-04-22T12:54:05.208Z,2.47
2023-04-22T12:59:21.402Z,1.77
2023-04-22T13:04:37.487Z,2.17
2023-04-22T13:09:53.214Z,1.90
2023-04-22T13:15:11.322Z,2.22
2023-04-22T13:20:27.042Z,2.13
2023-04-22T13:25:43.348Z,2.20
2023-04-22T13:30:58.970Z,2.28
2023-04-22T13:36:14.932Z,2.10
2023-04-22T13:41:30.609Z,2.58
2023-04-22T13:46:47.600Z,2.67
2023-04-22T13:52:03.334Z,2.45
2023-04-22T13:57:20.624Z,2.55
2023-04-22T14:02:36.773Z,2.67
2023-04-22T14:07:53.195Z,1.98
2023-04-22T14:13:09.226Z,2.47
2023-04-22T14:18:26.199Z,2.10
2023-04-22T14:23:42.268Z,1.90
2023-04-22T14:28:58.504Z,1.88
2023-04-22T14:34:14.135Z,1.80
2023-04-22T14:39:29.948Z,1.70
2023-04-22T14:44:45.899Z,2.05
2023-04-22T14:50:02.792Z,2.17
2023-04-22T14:55:23.757Z,2.22
2023-04-22T15:00:39.909Z,1.80
2023-04-22T15:05:56.423Z,2.28
2023-04-22T15:11:11.959Z,2.17
2023-04-22T15:16:27.915Z,1.83
2023-04-22T15:21:43.621Z,2.22
2023-04-22T15:27:00.232Z,2.00
2023-04-22T15:32:16.330Z,1.80
2023-04-22T15:37:32.717Z,1.75
2023-04-22T15:42:48.607Z,1.60
2023-04-22T15:48:06.116Z,2.03
2023-04-22T15:53:21.753Z,1.92
2023-04-22T15:58:37.628Z,1.80
2023-04-22T16:03:53.689Z,2.05
2023-04-22T16:09:09.406Z,1.70
2023-04-22T16:14:25.413Z,1.98
2023-04-22T16:19:41.768Z,1.73
2023-04-22T16:24:57.455Z,2.03
2023-04-22T16:30:16.097Z,1.77
2023-04-22T16:35:35.066Z,1.77
2023-04-22T16:40:54.224Z,1.33
2023-04-22T16:46:10.345Z,1.73
2023-04-22T16:51:26.391Z,1.85
2023-04-22T16:56:42.048Z,1.55
2023-04-22T17:01:57.972Z,1.50
2023-04-22T17:07:13.881Z,1.92
2023-04-22T17:12:29.822Z,1.75
2023-04-22T17:17:45.786Z,2.00
2023-04-22T17:23:02.967Z,2.08
2023-04-22T17:28:18.859Z,2.00
2023-04-22T17:33:36.909Z,1.75
2023-04-22T17:38:52.728Z,2.40
2023-04-22T17:44:09.257Z,1.98
2023-04-22T17:49:25.336Z,1.90
2023-04-22T17:54:41.868Z,2.35
2023-04-22T17:59:57.659Z,1.88
2023-04-22T18:05:13.477Z,2.38
2023-04-22T18:10:30.590Z,2.88
2023-04-22T18:15:46.598Z,3.22
2023-04-22T18:21:02.640Z,2.50
2023-04-22T18:26:18.132Z,2.78
2023-04-22T18:31:34.056Z,3.28
2023-04-22T18:36:50.104Z,3.17
2023-04-22T18:42:05.720Z,4.50
2023-04-22T18:47:21.574Z,5.22
2023-04-22T18:52:37.624Z,4.50
2023-04-22T18:57:53.777Z,3.63
2023-04-22T19:03:09.971Z,3.55
2023-04-22T19:08:26.148Z,3.13
2023-04-22T19:13:42.148Z,2.97
2023-04-22T19:18:58.024Z,3.67
2023-04-22T19:24:14.508Z,2.92
2023-04-22T19:29:30.476Z,2.30
2023-04-22T19:34:47.642Z,3.75
2023-04-22T19:40:04.520Z,3.70
2023-04-22T19:45:21.230Z,4.53
2023-04-22T19:50:37.073Z,5.68
2023-04-22T19:55:52.982Z,4.63
2023-04-22T20:01:09.381Z,5.78
2023-04-22T20:06:26.007Z,3.75
2023-04-22T20:11:42.854Z,4.72
2023-04-22T20:16:58.757Z,5.00
2023-04-22T20:22:17.603Z,3.45
2023-04-22T20:27:35.144Z,4.50
2023-04-22T20:32:51.846Z,3.45
2023-04-22T20:38:10.161Z,4.78
2023-04-22T20:43:27.268Z,4.10
2023-04-22T20:48:42.974Z,4.63
2023-04-22T20:53:58.992Z,5.00
2023-04-22T20:59:14.956Z,4.20
2023-04-22T21:04:32.589Z,4.32
2023-04-22T21:09:48.348Z,5.00
2023-04-22T21:15:04.730Z,4.72
2023-04-22T21:20:25.516Z,4.70
2023-04-22T21:25:42.488Z,4.95
2023-04-22T21:30:58.440Z,5.03
2023-04-22T21:36:14.161Z,4.28
2023-04-22T21:41:30.348Z,3.67
2023-04-22T21:46:46.164Z,3.90
2023-04-22T21:52:02.047Z,3.58
2023-04-22T21:57:17.991Z,4.97
2023-04-22T22:02:33.568Z,3.67
2023-04-22T22:07:49.468Z,3.95
2023-04-22T22:13:05.258Z,3.95
2023-04-22T22:18:21.102Z,4.28
2023-04-22T22:23:37.046Z,4.00
2023-04-22T22:28:53.001Z,4.35
2023-04-22T22:34:08.906Z,4.53
2023-04-22T22:39:24.940Z,3.85
2023-04-22T22:44:40.960Z,4.72
2023-04-22T22:49:57.213Z,4.28
2023-04-22T22:55:13.943Z,4.63
2023-04-22T23:00:29.799Z,4.15
2023-04-22T23:05:45.508Z,4.38
2023-04-22T23:11:02.315Z,4.32
2023-04-22T23:16:18.825Z,4.88
2023-04-22T23:21:36.104Z,5.10
2023-04-22T23:26:52.137Z,4.40
2023-04-22T23:32:10.140Z,4.88
2023-04-22T23:37:29.623Z,4.30
2023-04-22T23:42:45.577Z,4.20
2023-04-22T23:48:01.689Z,5.00
2023-04-22T23:53:18.008Z,4.25
2023-04-22T23:58:34.076Z,4.28
